createdAt,value
2022-07-25T00:02:37.000Z,11.4
2022-07-25T00:06:11.000Z,11.6
2022-07-25T00:09:43.000Z,11.7
2022-07-25T00:13:16.000Z,11.7
2022-07-25T00:16:49.000Z,12.2
2022-07-25T00:19:40.000Z,12.1
2022-07-25T00:23:13.000Z,12.3
2022-07-25T00:26:46.000Z,12.8
2022-07-25T00:30:19.000Z,13.2
2022-07-25T00:33:51.000Z,13.7
2022-07-25T00:37:24.000Z,12.7
2022-07-25T00:40:57.000Z,12.8
2022-07-25T00:44:30.000Z,12.5
2022-07-25T00:48:02.000Z,13.8
2022-07-25T00:51:35.000Z,15.6
2022-07-25T00:55:08.000Z,12.6
2022-07-25T00:57:59.000Z,12.8
2022-07-25T01:01:32.000Z,12.8
2022-07-25T01:05:05.000Z,12.9
2022-07-25T01:08:37.000Z,13.1
2022-07-25T01:12:10.000Z,13.5
2022-07-25T01:15:43.000Z,13.3
2022-07-25T01:19:15.000Z,14
2022-07-25T01:22:48.000Z,12.8
2022-07-25T01:26:21.000Z,12.9
2022-07-25T01:29:54.000Z,13.4
2022-07-25T01:33:27.000Z,14.6
2022-07-25T01:36:18.000Z,12.9
2022-07-25T01:39:51.000Z,13
2022-07-25T01:43:24.000Z,12.6
2022-07-25T01:46:56.000Z,13
2022-07-25T01:50:29.000Z,12.8
2022-07-25T01:54:02.000Z,13.4
2022-07-25T01:57:36.000Z,13.5
2022-07-25T02:01:15.000Z,14.2
2022-07-25T02:04:48.000Z,13.2
2022-07-25T02:08:21.000Z,13.8
2022-07-25T02:11:55.000Z,13.4
2022-07-25T02:14:47.000Z,13.4
2022-07-25T02:18:27.000Z,13.4
2022-07-25T02:22:00.000Z,13.4
2022-07-25T02:25:33.000Z,13.3
2022-07-25T02:29:05.000Z,13.6
2022-07-25T02:32:38.000Z,13.1
2022-07-25T02:36:11.000Z,13.7
2022-07-25T02:39:43.000Z,13.6
2022-07-25T02:43:16.000Z,13.9
2022-07-25T02:46:49.000Z,14.9
2022-07-25T02:50:21.000Z,14.8
2022-07-25T02:53:12.000Z,13.6
2022-07-25T02:57:12.000Z,13.3
2022-07-25T03:00:44.000Z,13.1
2022-07-25T03:04:17.000Z,14.3
2022-07-25T03:07:50.000Z,13.8
2022-07-25T03:11:23.000Z,13.9
2022-07-25T03:14:55.000Z,13.4
2022-07-25T03:18:28.000Z,13.8
2022-07-25T03:22:01.000Z,13.8
2022-07-25T03:25:33.000Z,13.9
2022-07-25T03:29:06.000Z,13.8
2022-07-25T03:31:57.000Z,13.7
2022-07-25T03:35:30.000Z,13.8
2022-07-25T03:39:03.000Z,13.9
2022-07-25T03:42:35.000Z,13.8
2022-07-25T03:46:09.000Z,15.1
2022-07-25T03:49:41.000Z,14.5
2022-07-25T03:53:14.000Z,14.1
2022-07-25T03:56:47.000Z,13.8
2022-07-25T04:00:19.000Z,14
2022-07-25T04:03:52.000Z,14
2022-07-25T04:07:25.000Z,15.1
2022-07-25T04:10:16.000Z,14.7
2022-07-25T04:13:49.000Z,17.4
2022-07-25T04:17:22.000Z,14.6
2022-07-25T04:20:55.000Z,13.2
2022-07-25T04:24:28.000Z,14.7
2022-07-25T04:28:01.000Z,14.3
2022-07-25T04:31:33.000Z,14.1
2022-07-25T04:35:06.000Z,13.8
2022-07-25T04:38:39.000Z,14.7
2022-07-25T04:42:11.000Z,14
2022-07-25T04:45:47.000Z,14
2022-07-25T04:48:39.000Z,13.3
2022-07-25T04:52:13.000Z,14.1
2022-07-25T04:55:45.000Z,14.4
2022-07-25T04:59:18.000Z,14.8
2022-07-25T05:02:51.000Z,15.7
2022-07-25T05:06:23.000Z,21.2
2022-07-25T05:09:56.000Z,12.7
2022-07-25T05:13:29.000Z,17
2022-07-25T05:17:02.000Z,15.3
2022-07-25T05:20:34.000Z,13.2
2022-07-25T05:24:07.000Z,18.3
2022-07-25T05:26:58.000Z,14.4
2022-07-25T05:30:31.000Z,13.4
2022-07-25T05:34:05.000Z,13.8
2022-07-25T05:37:38.000Z,15.4
2022-07-25T05:41:10.000Z,15.6
2022-07-25T05:44:43.000Z,13.4
2022-07-25T05:48:16.000Z,16.5
2022-07-25T05:51:49.000Z,14.1
2022-07-25T05:55:21.000Z,13.5
2022-07-25T05:58:54.000Z,14.1
2022-07-25T06:02:27.000Z,12.9
2022-07-25T06:05:18.000Z,12.7
2022-07-25T06:08:51.000Z,16.6
2022-07-25T06:12:24.000Z,13.8
2022-07-25T06:15:58.000Z,13.8
2022-07-25T06:19:31.000Z,14.7
2022-07-25T06:23:04.000Z,13.9
2022-07-25T06:26:37.000Z,19.3
2022-07-25T06:30:16.000Z,17.9
2022-07-25T06:33:49.000Z,15.5
2022-07-25T06:37:22.000Z,16
2022-07-25T06:40:55.000Z,14
2022-07-25T06:43:46.000Z,14
2022-07-25T06:47:19.000Z,17.8
2022-07-25T06:50:52.000Z,15.2
2022-07-25T06:54:24.000Z,16.5
2022-07-25T06:57:57.000Z,17.3
2022-07-25T07:01:30.000Z,15.2
2022-07-25T07:05:02.000Z,14.4
2022-07-25T07:08:35.000Z,15
2022-07-25T07:12:08.000Z,14.3
2022-07-25T07:15:41.000Z,15.1
2022-07-25T07:19:13.000Z,17.7
2022-07-25T07:22:05.000Z,14.5
2022-07-25T07:25:38.000Z,12.7
2022-07-25T07:29:11.000Z,12.3
2022-07-25T07:33:14.000Z,12.1
2022-07-25T07:36:47.000Z,11.6
2022-07-25T07:40:20.000Z,11.7
2022-07-25T07:43:53.000Z,16.8
2022-07-25T07:47:25.000Z,12
2022-07-25T07:50:58.000Z,11.3
2022-07-25T07:54:31.000Z,11.5
2022-07-25T07:58:03.000Z,16
2022-07-25T08:00:55.000Z,10.8
2022-07-25T08:04:28.000Z,11.8
2022-07-25T08:08:01.000Z,11.4
2022-07-25T08:11:33.000Z,12.1
2022-07-25T08:15:06.000Z,11
2022-07-25T08:18:39.000Z,11.1
2022-07-25T08:22:36.000Z,11.4
2022-07-25T08:26:10.000Z,11.3
2022-07-25T08:29:42.000Z,10.8
2022-07-25T08:33:15.000Z,11.3
2022-07-25T08:36:48.000Z,11.1
2022-07-25T08:39:39.000Z,10.7
2022-07-25T08:43:12.000Z,11.3
2022-07-25T08:46:45.000Z,10.6
2022-07-25T08:50:18.000Z,11.1
2022-07-25T08:53:51.000Z,11.2
2022-07-25T08:57:23.000Z,10.9
2022-07-25T09:00:56.000Z,11.2
2022-07-25T09:04:29.000Z,10.5
2022-07-25T09:08:01.000Z,10.4
2022-07-25T09:11:34.000Z,11.1
2022-07-25T09:15:07.000Z,10.5
2022-07-25T09:17:59.000Z,10.5
2022-07-25T09:21:36.000Z,10.1
2022-07-25T09:25:09.000Z,10.4
2022-07-25T09:28:43.000Z,9.7
2022-07-25T09:32:16.000Z,11.8
2022-07-25T09:35:48.000Z,9.6
2022-07-25T09:39:21.000Z,11
2022-07-25T09:42:54.000Z,9.2
2022-07-25T09:46:27.000Z,9.2
2022-07-25T09:50:00.000Z,8.8
2022-07-25T09:53:33.000Z,8.5
2022-07-25T09:56:24.000Z,8.9
2022-07-25T09:59:57.000Z,9.1
2022-07-25T10:03:29.000Z,8.8
2022-07-25T10:07:02.000Z,8.4
2022-07-25T10:10:35.000Z,8.4
2022-07-25T10:14:07.000Z,8.3
2022-07-25T10:17:40.000Z,7.4
2022-07-25T10:21:13.000Z,8.3
2022-07-25T10:24:56.000Z,8.1
2022-07-25T10:28:29.000Z,7.5
2022-07-25T10:32:01.000Z,7.8
2022-07-25T10:34:53.000Z,7.6
2022-07-25T10:38:25.000Z,8.1
2022-07-25T10:41:58.000Z,8.9
2022-07-25T10:45:31.000Z,8
2022-07-25T10:49:03.000Z,8
2022-07-25T10:52:54.000Z,7.9
2022-07-25T10:56:27.000Z,8.5
2022-07-25T11:00:16.000Z,9.1
2022-07-25T11:03:48.000Z,9.2
2022-07-25T11:07:21.000Z,8.2
2022-07-25T11:10:54.000Z,8.5
2022-07-25T11:13:45.000Z,8
2022-07-25T11:17:17.000Z,8.8
2022-07-25T11:20:50.000Z,8.4
2022-07-25T11:24:29.000Z,7.8
2022-07-25T11:28:02.000Z,8.7
2022-07-25T11:31:34.000Z,8.2
2022-07-25T11:35:07.000Z,7.8
2022-07-25T11:38:40.000Z,8.6
2022-07-25T11:42:13.000Z,8.1
2022-07-25T11:45:46.000Z,7.8
2022-07-25T11:49:19.000Z,10.3
2022-07-25T11:52:10.000Z,8.2
2022-07-25T11:55:42.000Z,7.8
2022-07-25T11:59:16.000Z,7.8
2022-07-25T12:02:48.000Z,7.6
2022-07-25T12:06:21.000Z,7.6
2022-07-25T12:09:54.000Z,7.1
2022-07-25T12:13:27.000Z,7.7
2022-07-25T12:16:59.000Z,7.6
2022-07-25T12:20:32.000Z,7.5
2022-07-25T12:24:05.000Z,7.2
2022-07-25T12:27:38.000Z,7.9
2022-07-25T12:30:29.000Z,7.8
2022-07-25T12:34:02.000Z,7.5
2022-07-25T12:37:35.000Z,7.2
2022-07-25T12:41:09.000Z,7
2022-07-25T12:44:43.000Z,7.5
2022-07-25T12:48:16.000Z,6.8
2022-07-25T12:51:49.000Z,8.6
2022-07-25T12:55:23.000Z,7.1
2022-07-25T12:58:56.000Z,6.8
2022-07-25T13:02:29.000Z,7.3
2022-07-25T13:06:02.000Z,8
2022-07-25T13:08:53.000Z,8.2
2022-07-25T13:12:26.000Z,7.4
2022-07-25T13:15:58.000Z,7.4
2022-07-25T13:19:31.000Z,8.1
2022-07-25T13:23:04.000Z,8.7
2022-07-25T13:26:37.000Z,8.3
2022-07-25T13:30:10.000Z,8.2
2022-07-25T13:33:42.000Z,9.2
2022-07-25T13:37:19.000Z,8.9
2022-07-25T13:40:52.000Z,12.1
2022-07-25T13:44:25.000Z,10.6
2022-07-25T13:47:16.000Z,10.4
2022-07-25T13:50:55.000Z,10.2
2022-07-25T13:54:28.000Z,13.2
2022-07-25T13:58:01.000Z,10.7
2022-07-25T14:01:33.000Z,11
2022-07-25T14:05:06.000Z,11.4
2022-07-25T14:08:39.000Z,12.3
2022-07-25T14:12:11.000Z,13.4
2022-07-25T14:15:44.000Z,12.7
2022-07-25T14:19:17.000Z,12.8
2022-07-25T14:22:50.000Z,11.7
2022-07-25T14:25:41.000Z,10.9
2022-07-25T14:29:14.000Z,10.7
2022-07-25T14:32:52.000Z,10.7
2022-07-25T14:36:25.000Z,12.5
2022-07-25T14:39:58.000Z,9.6
2022-07-25T14:43:31.000Z,9.8
2022-07-25T14:47:04.000Z,9.8
2022-07-25T14:50:38.000Z,9.2
2022-07-25T14:54:10.000Z,9.4
2022-07-25T14:57:43.000Z,8.2
2022-07-25T15:01:16.000Z,7.9
2022-07-25T15:04:07.000Z,7.5
2022-07-25T15:07:40.000Z,8
2022-07-25T15:11:13.000Z,7.7
2022-07-25T15:14:45.000Z,8.3
2022-07-25T15:18:18.000Z,7.9
2022-07-25T15:21:51.000Z,7.8
2022-07-25T15:25:28.000Z,7.7
2022-07-25T15:29:27.000Z,7.1
2022-07-25T15:33:00.000Z,8.3
2022-07-25T15:36:33.000Z,8.5
2022-07-25T15:40:06.000Z,9.6
2022-07-25T15:42:57.000Z,10.3
2022-07-25T15:46:30.000Z,7.6
2022-07-25T15:50:03.000Z,8
2022-07-25T15:53:35.000Z,7.5
2022-07-25T15:57:08.000Z,7.5
2022-07-25T16:00:41.000Z,7.4
2022-07-25T16:04:14.000Z,7.9
2022-07-25T16:07:47.000Z,7.7
2022-07-25T16:11:19.000Z,7.7
2022-07-25T16:14:52.000Z,7.1
2022-07-25T16:18:25.000Z,7.7
2022-07-25T16:21:16.000Z,7.5
2022-07-25T16:24:49.000Z,8
2022-07-25T16:28:22.000Z,7.3
2022-07-25T16:31:55.000Z,9.4
2022-07-25T16:35:28.000Z,10.3
2022-07-25T16:39:01.000Z,9.8
2022-07-25T16:42:34.000Z,8
2022-07-25T16:46:07.000Z,8.4
2022-07-25T16:49:40.000Z,8.4
2022-07-25T16:53:12.000Z,8.7
2022-07-25T16:56:45.000Z,8.5
2022-07-25T16:59:39.000Z,9.2
2022-07-25T17:03:12.000Z,21.7
2022-07-25T17:06:45.000Z,23
2022-07-25T17:10:17.000Z,25.3
2022-07-25T17:13:50.000Z,8.6
2022-07-25T17:17:23.000Z,10.2
2022-07-25T17:20:56.000Z,9.8
2022-07-25T17:24:28.000Z,8.2
2022-07-25T17:28:01.000Z,11.3
2022-07-25T17:31:34.000Z,8.7
2022-07-25T17:35:07.000Z,7.2
2022-07-25T17:37:58.000Z,7
2022-07-25T17:41:32.000Z,8.4
2022-07-25T17:45:05.000Z,8.1
2022-07-25T17:48:38.000Z,7.9
2022-07-25T17:52:11.000Z,10.2
2022-07-25T17:55:44.000Z,8
2022-07-25T17:59:16.000Z,8.2
2022-07-25T18:02:49.000Z,7.7
2022-07-25T18:06:22.000Z,8
2022-07-25T18:09:55.000Z,7.8
2022-07-25T18:13:28.000Z,9.7
2022-07-25T18:16:19.000Z,10.3
2022-07-25T18:19:52.000Z,9
2022-07-25T18:23:25.000Z,9.6
2022-07-25T18:27:30.000Z,10.4
2022-07-25T18:31:03.000Z,11.4
2022-07-25T18:34:36.000Z,10.2
2022-07-25T18:38:09.000Z,11
2022-07-25T18:41:41.000Z,10.9
2022-07-25T18:45:14.000Z,10.6
2022-07-25T18:48:49.000Z,11.4
2022-07-25T18:52:22.000Z,10.2
2022-07-25T18:55:13.000Z,10.2
2022-07-25T18:58:45.000Z,7.8
2022-07-25T19:02:18.000Z,10.2
2022-07-25T19:05:51.000Z,6.5
2022-07-25T19:09:28.000Z,6.1
2022-07-25T19:13:01.000Z,7.8
2022-07-25T19:16:46.000Z,6.5
2022-07-25T19:20:24.000Z,6.6
2022-07-25T19:23:57.000Z,6.3
2022-07-25T19:27:31.000Z,7.6
2022-07-25T19:31:04.000Z,6.7
2022-07-25T19:33:55.000Z,6.9
2022-07-25T19:37:27.000Z,7.4
2022-07-25T19:41:00.000Z,8.2
2022-07-25T19:44:33.000Z,8.2
2022-07-25T19:48:06.000Z,6.5
2022-07-25T19:51:39.000Z,7.9
2022-07-25T19:55:11.000Z,8.3
2022-07-25T19:58:44.000Z,6
2022-07-25T20:02:17.000Z,6.9
2022-07-25T20:05:50.000Z,10.1
2022-07-25T20:09:23.000Z,6.7
2022-07-25T20:12:14.000Z,7.3
2022-07-25T20:15:47.000Z,8.6
2022-07-25T20:19:19.000Z,6.5
2022-07-25T20:22:52.000Z,7.1
2022-07-25T20:26:25.000Z,7.4
2022-07-25T20:29:58.000Z,7.1
2022-07-25T20:33:31.000Z,6.5
2022-07-25T20:37:03.000Z,7.2
2022-07-25T20:40:38.000Z,7.5
2022-07-25T20:44:15.000Z,5.2
2022-07-25T20:47:47.000Z,4.9
2022-07-25T20:50:39.000Z,6.8
2022-07-25T20:54:12.000Z,4.5
2022-07-25T20:57:44.000Z,8.1
2022-07-25T21:01:17.000Z,5.8
2022-07-25T21:04:50.000Z,6.9
2022-07-25T21:08:26.000Z,7.2
2022-07-25T21:11:59.000Z,4.6
2022-07-25T21:15:31.000Z,6.2
2022-07-25T21:19:04.000Z,5.9
2022-07-25T21:22:37.000Z,7.9
2022-07-25T21:26:10.000Z,6.2
2022-07-25T21:29:01.000Z,4.9
2022-07-25T21:32:35.000Z,9.7
2022-07-25T21:36:07.000Z,5.7
2022-07-25T21:39:40.000Z,8
2022-07-25T21:43:12.000Z,5.7
2022-07-25T21:46:45.000Z,6.1
2022-07-25T21:50:20.000Z,6.6
2022-07-25T21:53:56.000Z,5.7
2022-07-25T21:57:29.000Z,7.2
2022-07-25T22:01:02.000Z,6.6
2022-07-25T22:04:35.000Z,6.1
2022-07-25T22:07:26.000Z,8.7
2022-07-25T22:10:59.000Z,7.7
2022-07-25T22:15:03.000Z,7.6
2022-07-25T22:18:37.000Z,6.6
2022-07-25T22:22:10.000Z,6.2
2022-07-25T22:25:43.000Z,7
2022-07-25T22:29:15.000Z,6.1
2022-07-25T22:32:48.000Z,5.6
2022-07-25T22:36:21.000Z,6.3
2022-07-25T22:39:54.000Z,6.3
2022-07-25T22:43:27.000Z,7.1
2022-07-25T22:46:42.000Z,5.8
2022-07-25T22:50:15.000Z,4.5
2022-07-25T22:53:48.000Z,7.7
2022-07-25T22:57:20.000Z,6.7
2022-07-25T23:00:53.000Z,6.6
2022-07-25T23:04:26.000Z,6.7
2022-07-25T23:07:59.000Z,6.9
2022-07-25T23:11:35.000Z,6
2022-07-25T23:15:08.000Z,6.7
2022-07-25T23:18:41.000Z,5.8
2022-07-25T23:22:13.000Z,6.3
2022-07-25T23:25:05.000Z,7
2022-07-25T23:28:38.000Z,4.7
2022-07-25T23:32:10.000Z,7
2022-07-25T23:35:43.000Z,5.7
2022-07-25T23:39:15.000Z,7
2022-07-25T23:42:48.000Z,4.9
2022-07-25T23:46:22.000Z,7.9
2022-07-25T23:49:56.000Z,7
2022-07-25T23:53:29.000Z,8.1
2022-07-25T23:57:01.000Z,6
